CheckWX is a tool to help pilots better visualize weather data.  It is not intended as a substitute for an official pre-flight weather briefing.

02:55:00 UTC

KGDJ METAR
Granbury Regional Airport
Granbury, Texas, USA
Current

20 mins ago

KGDJ 230235Z AUTO 01007KT 10SM SCT050 30/20 A3006 RMK AO2 T02950195
Observed
Jul-23 @ 02:35 UTC
Wind
  • 010° at 7 KTS
Visibility
10 SM
Flight Rules
VFR
Cloud Levels
  • Scattered at 5,000' AGL
Temperature
30°C / 86°F
Dewpoint
20°C / 68°F
Heat Index
32°C / 89°F
Humidity
55%
Altimeter
30.06" Hg
Pressure
1017.92 hPa
Previous

40 mins ago

KGDJ 230215Z AUTO 01009KT 10SM SCT050 30/20 A3005 RMK AO2 T03000195
Observed
Jul-23 @ 02:15 UTC
Wind
  • 010° at 9 KTS
Visibility
10 SM
Flight Rules
VFR
Cloud Levels
  • Scattered at 5,000' AGL
Temperature
30°C / 86°F
Dewpoint
20°C / 68°F
Heat Index
32°C / 89°F
Humidity
55%
Altimeter
30.05" Hg
Pressure
1017.62 hPa
Previous

60 mins ago

KGDJ 230155Z AUTO 01008KT 10SM SCT050 30/20 A3005 RMK AO2 T03030198
Observed
Jul-23 @ 01:55 UTC
Wind
  • 010° at 8 KTS
Visibility
10 SM
Flight Rules
VFR
Cloud Levels
  • Scattered at 5,000' AGL
Temperature
30°C / 86°F
Dewpoint
20°C / 68°F
Heat Index
32°C / 89°F
Humidity
55%
Altimeter
30.05" Hg
Pressure
1017.62 hPa